Flugplatz Hahn (EDFH)

Hier findest Du alle Informationen zum Flugplatz Hahn (EDFH).

Informationen für Piloten zum Flugplatz Hahn

Hier findest Du alle relevanten Informationen, die Du als Pilot benötigst, um Hahn anzufliegen.

Flugplatz: Hahn ICAO-Code: EDFH
Frequenz Turm: 119,650 Mhz GAFOR Gebiet: 41
Frequenz Ground: 119,650 Mhz Mogas: nein
Platzrunde: - Landegebühr: -
Platzhöhe: - Sunrise: 03:44 Uhr UTC
Pisten: 03/21 - 2.745 m x , ASPH Sunset: 19:10 Uhr UTC

Mitglieder, die in Hahn fliegen

Flugwetter am Flugplatz Hahn

Die METAR Information stammen aus EDFH.

METAR Code:
2021/05/10 19:50
EDFH 101950Z 14005KT 9999 -RA SCT040 12/10 Q1010

Temperatur: 12,5 °C Niederschlag: - Wind: 10,0 kt
Temperatur (min.): 11,0 °C Luftdruck: 1008 hPa Windrichtung: 260 °
Temperatur (max.): 13,0 °C Luftfeuchtigkeit: 54 % Bewölkung: 2/8

Flugschulen am Flugplatz Hahn

Am Flugplatz Hahn gibt es leider keine Flugschule.

Benachbarte Flugplätze und Flugschulen

Es gibt 19 weitere Flugplätze in einem Umkreis von 50 km um den Flugplatz Hahn.

Jetzt anmelden

Passwort vergessen

Umfrage Archiv

Seid Ihr aufgrund von Corona im Jahr 2020 mehr oder weniger geflogen als im Jahr zuvor?

weniger
56 %
gleich viel
26.9 %
mehr
17.1 %
Stimmen: 216 | Diskussion
Anzeige: Roland Aircraft
Statistik Alle Mitglieder

Aktuell sind 65 Besucher online, davon 5 Mitglieder und 60 Gäste.


Mitglieder online:
Pruberi  echt_weg  Winair  monstertyp  Tarutino 

Anzeige: VFR Sprechfunk Simulator


Anzeige: Pocket FMS